Time;durP1;ratioP1;P1;durP2;ratioP2;P2;SDS_P1;SDS_P2;PMS_P1;PMS_P2;Temp;Humidity;BMP_temperature;BMP_pressure;BME280_temperature;BME280_humidity;BME280_pressure;Samples;Min_cycle;Max_cycle;Signal;HPM_P1;HPM_P2
2022/01/02 00:01:54;;;;;;;16.85;6.18;;;9.50;99.90;;;;;;4985796;28;20117;-64
2022/01/02 00:04:20;;;;;;;12.50;5.63;;;9.60;99.90;;;;;;4972240;28;20469;-65
2022/01/02 00:06:45;;;;;;;15.23;5.70;;;8.80;99.90;;;;;;4978218;28;20033;-65
2022/01/02 00:09:11;;;;;;;10.95;5.63;;;9.00;99.90;;;;;;4973123;28;20035;-65
2022/01/02 00:11:37;;;;;;;14.35;5.90;;;9.40;99.90;;;;;;4973466;28;20175;-65
2022/01/02 00:14:05;;;;;;;12.45;5.53;;;9.10;99.90;;;;;;4987781;28;20049;-65
2022/01/02 00:16:30;;;;;;;18.17;5.55;;;8.60;99.90;;;;;;4969171;28;20050;-65
2022/01/02 00:19:07;;;;;;;12.60;5.80;;;9.20;99.90;;;;;;4971067;28;20037;-65
2022/01/02 00:21:34;;;;;;;17.55;6.97;;;8.80;99.90;;;;;;4972896;28;20045;-65
2022/01/02 00:24:03;;;;;;;15.32;6.15;;;9.00;99.90;;;;;;4970537;28;20054;-65
2022/01/02 00:26:36;;;;;;;16.05;6.15;;;9.00;99.90;;;;;;4970989;28;20844;-65
2022/01/02 00:29:02;;;;;;;13.20;5.63;;;9.20;99.90;;;;;;4972461;28;20073;-65
2022/01/02 00:31:27;;;;;;;17.23;6.03;;;9.00;99.90;;;;;;4980976;28;20110;-65
2022/01/02 00:33:53;;;;;;;15.60;6.38;;;9.00;99.90;;;;;;4969352;28;20769;-65
2022/01/02 00:36:18;;;;;;;14.98;6.18;;;9.00;99.90;;;;;;4971656;28;20050;-65
2022/01/02 00:38:44;;;;;;;13.68;6.20;;;9.00;99.90;;;;;;4969553;28;20061;-65
2022/01/02 00:41:11;;;;;;;15.43;6.35;;;;;;;;;;4986437;28;20052;-65
2022/01/02 00:43:36;;;;;;;15.70;6.43;;;9.10;99.90;;;;;;4968939;28;20763;-65
2022/01/02 00:46:02;;;;;;;13.48;5.88;;;9.00;99.90;;;;;;4968621;28;20129;-65
2022/01/02 00:48:28;;;;;;;15.98;5.45;;;8.50;99.90;;;;;;4971442;28;20043;-65
2022/01/02 00:50:53;;;;;;;13.40;5.78;;;8.60;99.90;;;;;;4970049;28;20083;-65
2022/01/02 00:53:18;;;;;;;12.73;5.50;;;9.00;99.90;;;;;;4968749;28;20773;-65
2022/01/02 00:55:44;;;;;;;14.35;5.70;;;9.00;99.90;;;;;;4971317;28;20039;-65
2022/01/02 00:58:09;;;;;;;11.40;5.50;;;9.00;99.90;;;;;;4968937;28;20029;-65
2022/01/02 01:00:35;;;;;;;12.05;5.82;;;9.00;99.90;;;;;;4975508;28;20038;-65
2022/01/02 01:03:00;;;;;;;12.38;5.78;;;9.30;99.90;;;;;;4972949;28;20033;-64
2022/01/02 01:05:26;;;;;;;13.45;6.07;;;9.10;99.90;;;;;;4971882;28;20439;-64
2022/01/02 01:07:52;;;;;;;12.75;5.03;;;9.10;99.90;;;;;;4967264;28;20125;-64
2022/01/02 01:10:17;;;;;;;12.25;5.82;;;9.10;99.90;;;;;;4969514;28;20502;-64
2022/01/02 01:12:45;;;;;;;14.27;5.82;;;9.10;99.90;;;;;;4966643;28;20307;-64
2022/01/02 01:15:11;;;;;;;12.63;5.18;;;9.10;99.90;;;;;;4971181;28;20039;-64
2022/01/02 01:17:36;;;;;;;14.23;5.65;;;9.10;99.90;;;;;;4975926;28;20033;-64
2022/01/02 01:20:02;;;;;;;13.60;5.80;;;9.00;99.90;;;;;;4971659;28;20351;-65
2022/01/02 01:22:28;;;;;;;9.75;5.88;;;9.00;99.90;;;;;;4970692;28;20371;-64
2022/01/02 01:24:54;;;;;;;13.05;5.68;;;9.00;99.90;;;;;;4973906;28;20789;-64
2022/01/02 01:27:20;;;;;;;16.65;6.10;;;9.10;99.90;;;;;;4970686;28;20562;-64
2022/01/02 01:29:46;;;;;;;16.67;5.35;;;9.00;99.90;;;;;;4973656;28;20068;-64
2022/01/02 01:32:11;;;;;;;11.77;4.82;;;9.00;99.90;;;;;;4977252;28;20034;-64
2022/01/02 01:34:38;;;;;;;14.15;5.30;;;9.10;99.90;;;;;;4973668;28;20038;-64
2022/01/02 01:37:03;;;;;;;11.88;5.65;;;9.10;99.90;;;;;;4982603;28;20506;-64
2022/01/02 01:39:32;;;;;;;12.77;5.78;;;9.20;99.90;;;;;;4973093;28;20077;-64
2022/01/02 01:42:06;;;;;;;14.32;5.57;;;9.60;99.90;;;;;;4984406;28;20030;-65
2022/01/02 01:47:13;;;;;;;18.35;6.97;;;8.90;99.90;;;;;;4974766;28;20035;-64
2022/01/02 01:49:39;;;;;;;10.35;5.88;;;8.90;99.90;;;;;;4972556;28;20490;-64
2022/01/02 01:52:05;;;;;;;14.23;5.88;;;8.80;99.90;;;;;;4972425;28;20105;-64
2022/01/02 01:54:30;;;;;;;12.52;6.05;;;8.80;99.90;;;;;;4971244;28;20073;-65
2022/01/02 01:56:56;;;;;;;12.50;5.85;;;8.80;99.90;;;;;;4975535;28;20843;-65
2022/01/02 01:59:25;;;;;;;14.00;5.50;;;8.90;99.90;;;;;;4975481;28;20454;-64
2022/01/02 02:01:52;;;;;;;12.70;5.80;;;9.00;99.90;;;;;;4976447;28;20022;-65
2022/01/02 02:04:18;;;;;;;8.40;5.15;;;8.90;99.90;;;;;;4972492;28;20042;-64
2022/01/02 02:06:44;;;;;;;10.23;5.43;;;8.90;99.90;;;;;;4973415;28;20149;-64
2022/01/02 02:09:11;;;;;;;10.20;5.38;;;9.00;99.90;;;;;;4973174;28;20057;-65
2022/01/02 02:11:38;;;;;;;13.75;5.95;;;8.90;99.90;;;;;;4976332;28;20777;-64
2022/01/02 02:14:07;;;;;;;10.95;5.88;;;8.80;99.90;;;;;;4974606;28;20026;-65
2022/01/02 02:16:32;;;;;;;9.52;4.88;;;8.80;99.90;;;;;;4990673;28;20026;-64
2022/01/02 02:18:59;;;;;;;9.10;5.30;;;8.70;99.90;;;;;;4972842;28;20027;-64
2022/01/02 02:21:24;;;;;;;13.45;5.53;;;8.70;99.90;;;;;;4989898;28;20054;-64
2022/01/02 02:23:50;;;;;;;15.60;5.40;;;7.40;99.90;;;;;;4972997;28;20029;-65
2022/01/02 02:26:16;;;;;;;9.88;6.05;;;8.60;99.90;;;;;;4972526;28;20034;-64
2022/01/02 02:28:41;;;;;;;10.98;5.85;;;8.70;99.90;;;;;;4978740;28;20042;-65
2022/01/02 02:31:07;;;;;;;12.35;5.65;;;8.60;99.90;;;;;;4975878;28;20150;-64
2022/01/02 02:33:32;;;;;;;12.35;6.05;;;8.50;99.90;;;;;;4985864;28;20727;-64
2022/01/02 02:35:58;;;;;;;11.50;5.80;;;8.50;99.90;;;;;;4966847;28;20081;-64
2022/01/02 02:38:24;;;;;;;9.85;5.30;;;8.50;99.90;;;;;;4971528;28;20066;-64
2022/01/02 02:40:54;;;;;;;12.40;5.60;;;8.80;99.90;;;;;;4972777;28;20827;-65
2022/01/02 02:43:29;;;;;;;15.73;5.68;;;8.50;99.90;;;;;;4973929;28;20031;-65
2022/01/02 02:51:34;;;;;;;13.37;5.83;;;;;;;;;;4971066;28;20580;-64
2022/01/02 02:53:59;;;;;;;9.30;5.13;;;9.20;99.90;;;;;;4973738;28;20723;-64
2022/01/02 02:56:43;;;;;;;15.30;5.82;;;8.20;99.90;;;;;;4991816;28;20369;-64
2022/01/02 02:59:09;;;;;;;13.00;5.70;;;;;;;;;;4973935;28;20030;-64
2022/01/02 03:01:35;;;;;;;15.27;6.47;;;8.70;99.90;;;;;;4970367;28;20751;-64
2022/01/02 03:04:01;;;;;;;11.52;5.35;;;8.60;99.90;;;;;;4969489;28;20042;-64
2022/01/02 03:06:26;;;;;;;12.50;6.03;;;8.50;99.90;;;;;;4972581;28;20031;-64
2022/01/02 03:08:52;;;;;;;12.43;5.75;;;8.60;99.90;;;;;;4972873;28;20112;-64
2022/01/02 03:11:20;;;;;;;13.45;5.75;;;8.60;99.90;;;;;;4972490;28;20509;-64
2022/01/02 03:13:46;;;;;;;14.40;6.80;;;8.50;99.90;;;;;;4970742;28;20065;-64
2022/01/02 03:16:12;;;;;;;14.57;6.00;;;8.60;99.90;;;;;;4973518;28;20130;-64
2022/01/02 03:18:37;;;;;;;10.27;5.97;;;8.80;99.90;;;;;;4971037;28;20066;-64
2022/01/02 03:21:03;;;;;;;15.55;6.13;;;8.60;99.90;;;;;;4977048;28;20030;-64
2022/01/02 03:23:30;;;;;;;14.65;6.28;;;;;;;;;;4973083;28;20109;-64
2022/01/02 03:25:56;;;;;;;13.55;6.32;;;8.50;99.90;;;;;;4977108;28;20066;-65
2022/01/02 03:28:21;;;;;;;10.88;5.88;;;8.60;99.90;;;;;;4973862;28;20511;-64
2022/01/02 03:30:47;;;;;;;12.10;5.32;;;8.50;99.90;;;;;;4972600;28;20040;-64
2022/01/02 03:33:13;;;;;;;12.85;5.75;;;8.50;99.90;;;;;;4974654;28;20133;-65
2022/01/02 03:35:38;;;;;;;14.82;5.97;;;8.50;99.90;;;;;;4978129;28;20442;-64
2022/01/02 03:38:04;;;;;;;14.27;6.72;;;8.50;99.90;;;;;;4970460;28;20117;-64
2022/01/02 03:40:29;;;;;;;11.60;5.90;;;8.50;99.90;;;;;;4974747;28;20431;-64
2022/01/02 03:42:55;;;;;;;12.85;5.82;;;8.50;99.90;;;;;;4974423;28;20023;-64
2022/01/02 03:45:21;;;;;;;12.32;5.50;;;8.30;99.90;;;;;;4970203;28;20142;-64
2022/01/02 03:47:46;;;;;;;12.02;6.00;;;8.40;99.90;;;;;;4968126;28;20037;-65
2022/01/02 03:50:12;;;;;;;10.48;6.15;;;8.30;99.90;;;;;;4973517;28;20537;-64
2022/01/02 03:52:38;;;;;;;12.88;5.80;;;8.50;99.90;;;;;;4974580;28;20037;-64
2022/01/02 03:55:04;;;;;;;12.65;6.07;;;8.70;99.90;;;;;;4971994;28;20309;-64
2022/01/02 03:57:29;;;;;;;16.15;6.07;;;8.50;99.90;;;;;;4971049;28;20026;-64
2022/01/02 03:59:55;;;;;;;11.75;6.45;;;8.50;99.90;;;;;;4987825;28;20034;-64
2022/01/02 04:02:20;;;;;;;9.73;5.78;;;8.40;99.90;;;;;;4972599;28;20034;-65
2022/01/02 04:04:46;;;;;;;10.98;5.97;;;8.50;99.90;;;;;;4973729;28;20077;-64
2022/01/02 04:07:12;;;;;;;13.63;5.90;;;8.50;99.90;;;;;;4969027;28;20078;-65
2022/01/02 04:09:37;;;;;;;13.27;5.90;;;8.60;99.90;;;;;;4969787;28;20038;-65
2022/01/02 04:12:03;;;;;;;12.30;5.70;;;8.50;99.90;;;;;;4972853;28;20143;-64
2022/01/02 04:14:30;;;;;;;9.98;5.60;;;10.60;99.90;;;;;;4969377;28;20741;-64
2022/01/02 04:16:56;;;;;;;11.57;6.30;;;8.90;99.90;;;;;;4990062;28;20034;-65
2022/01/02 04:19:21;;;;;;;19.80;6.65;;;8.60;99.90;;;;;;4972551;28;20035;-65
2022/01/02 04:21:47;;;;;;;11.52;6.18;;;8.80;99.90;;;;;;4973135;28;20039;-64
2022/01/02 04:24:13;;;;;;;15.98;6.82;;;8.50;99.90;;;;;;4969260;28;20054;-64
2022/01/02 04:26:38;;;;;;;11.95;6.18;;;8.20;99.90;;;;;;4972129;28;20585;-64
2022/01/02 04:29:05;;;;;;;14.15;6.53;;;8.60;99.90;;;;;;4968128;28;20402;-64
2022/01/02 04:31:31;;;;;;;17.83;6.80;;;8.60;99.90;;;;;;4975517;28;20588;-64
2022/01/02 04:33:57;;;;;;;10.82;5.88;;;8.60;99.90;;;;;;4972694;28;20125;-64
2022/01/02 04:36:22;;;;;;;10.38;5.82;;;8.50;99.90;;;;;;4972046;28;20489;-64
2022/01/02 04:38:48;;;;;;;13.50;6.22;;;8.60;99.90;;;;;;4971349;28;20061;-64
2022/01/02 04:41:14;;;;;;;16.90;7.22;;;8.50;99.90;;;;;;4968966;28;20038;-64
2022/01/02 04:43:40;;;;;;;10.55;5.40;;;8.50;99.90;;;;;;4972161;28;20026;-65
2022/01/02 04:46:06;;;;;;;11.02;5.35;;;8.60;99.90;;;;;;4974486;28;20096;-65
2022/01/02 04:48:31;;;;;;;11.13;5.57;;;8.60;99.90;;;;;;4971040;28;20537;-64
2022/01/02 04:50:57;;;;;;;14.57;6.88;;;8.80;99.90;;;;;;4973995;28;20117;-65
2022/01/02 04:53:23;;;;;;;11.82;5.60;;;8.10;99.90;;;;;;4969193;28;20034;-64
2022/01/02 04:55:48;;;;;;;13.10;5.90;;;8.50;99.90;;;;;;4968932;28;20462;-65
2022/01/02 04:58:14;;;;;;;9.20;5.45;;;11.20;99.90;;;;;;4971626;28;20173;-65
2022/01/02 05:00:41;;;;;;;14.35;5.45;;;8.50;99.90;;;;;;4974021;28;20031;-65
2022/01/02 05:03:07;;;;;;;10.68;5.43;;;10.30;99.90;;;;;;4967953;28;20034;-65
2022/01/02 05:05:33;;;;;;;14.20;6.47;;;8.40;99.90;;;;;;4974354;28;20023;-65
2022/01/02 05:07:59;;;;;;;8.98;4.85;;;8.40;99.90;;;;;;4967467;28;20403;-64
2022/01/02 05:10:25;;;;;;;13.90;6.05;;;8.40;99.90;;;;;;4967836;28;20037;-64
2022/01/02 05:12:51;;;;;;;11.25;5.40;;;8.50;99.90;;;;;;4969838;28;20035;-64
2022/01/02 05:15:17;;;;;;;13.07;5.68;;;8.90;99.90;;;;;;4969876;28;20483;-64
2022/01/02 05:17:43;;;;;;;11.35;5.72;;;8.60;99.90;;;;;;4970988;28;20077;-65
2022/01/02 05:20:08;;;;;;;9.57;5.20;;;8.40;99.90;;;;;;4972494;28;20828;-64
2022/01/02 05:22:35;;;;;;;10.75;5.22;;;8.50;99.90;;;;;;4969903;28;20038;-65
2022/01/02 05:25:00;;;;;;;9.02;4.85;;;8.20;99.90;;;;;;4970481;28;20031;-64
2022/01/02 05:27:26;;;;;;;11.43;5.18;;;;;;;;;;4976250;28;20065;-64
2022/01/02 05:29:52;;;;;;;13.20;5.38;;;8.40;99.90;;;;;;4976700;28;20026;-65
2022/01/02 05:32:17;;;;;;;10.88;4.80;;;8.40;99.90;;;;;;4974587;28;20034;-64
2022/01/02 05:34:43;;;;;;;13.40;5.32;;;9.60;99.90;;;;;;4972579;28;20034;-64
2022/01/02 05:37:10;;;;;;;10.82;4.95;;;;;;;;;;4975005;28;20026;-64
2022/01/02 05:39:36;;;;;;;8.63;5.18;;;8.30;99.90;;;;;;4973033;28;20030;-64
2022/01/02 05:42:02;;;;;;;8.43;4.80;;;8.40;99.90;;;;;;4975855;28;20398;-64
2022/01/02 05:44:28;;;;;;;8.93;4.90;;;8.40;99.90;;;;;;4975523;28;20039;-64
2022/01/02 05:46:54;;;;;;;9.57;5.28;;;8.40;99.90;;;;;;4975826;28;20096;-65
2022/01/02 05:49:21;;;;;;;12.15;5.70;;;8.30;99.90;;;;;;4973193;28;20088;-64
2022/01/02 05:51:46;;;;;;;11.85;4.88;;;8.30;99.90;;;;;;4972840;28;20040;-64
2022/01/02 05:54:12;;;;;;;11.63;5.07;;;8.40;99.90;;;;;;4977482;28;20406;-65
2022/01/02 05:56:37;;;;;;;14.55;5.57;;;8.70;99.90;;;;;;4965588;28;20550;-65
2022/01/02 05:59:04;;;;;;;11.98;5.35;;;8.60;99.90;;;;;;4972426;28;20114;-65
2022/01/02 06:01:29;;;;;;;10.60;4.97;;;8.50;99.90;;;;;;4975867;28;20110;-65
2022/01/02 06:03:56;;;;;;;8.93;4.82;;;8.60;99.90;;;;;;4973352;28;20034;-65
2022/01/02 06:06:22;;;;;;;10.68;5.07;;;8.60;99.90;;;;;;4971578;28;20031;-65
2022/01/02 06:08:48;;;;;;;13.13;4.90;;;9.20;99.90;;;;;;4974221;28;20034;-65
2022/01/02 06:11:13;;;;;;;8.15;4.60;;;8.60;99.90;;;;;;4976322;28;20144;-65
2022/01/02 06:13:40;;;;;;;7.85;4.78;;;8.60;99.90;;;;;;4974939;28;20046;-65
2022/01/02 06:16:07;;;;;;;13.93;5.10;;;8.60;99.90;;;;;;4977078;28;20034;-64
2022/01/02 06:18:32;;;;;;;9.68;4.68;;;8.70;99.90;;;;;;4975567;28;20617;-65
2022/01/02 06:20:58;;;;;;;11.88;4.97;;;8.70;99.90;;;;;;4975648;28;20729;-65
2022/01/02 06:23:23;;;;;;;12.02;4.50;;;9.90;99.90;;;;;;4980472;28;20026;-65
2022/01/02 06:25:49;;;;;;;9.50;3.95;;;8.80;99.90;;;;;;4977247;28;20782;-65
2022/01/02 06:28:14;;;;;;;9.68;4.10;;;9.00;99.90;;;;;;4972433;28;20031;-65
2022/01/02 06:30:40;;;;;;;8.98;4.25;;;8.70;99.90;;;;;;4979687;28;20041;-65
2022/01/02 06:33:05;;;;;;;21.92;5.45;;;8.90;99.90;;;;;;4972097;28;20035;-65
2022/01/02 06:35:32;;;;;;;8.95;4.32;;;9.10;99.90;;;;;;4977247;28;20030;-65
2022/01/02 06:37:58;;;;;;;12.93;4.47;;;9.00;99.90;;;;;;4978091;28;20031;-65
2022/01/02 06:40:24;;;;;;;15.50;4.30;;;8.90;99.90;;;;;;4978242;28;20041;-65
2022/01/02 06:42:50;;;;;;;9.93;4.13;;;;;;;;;;4977797;28;20034;-65
2022/01/02 06:45:15;;;;;;;10.90;4.32;;;9.10;99.90;;;;;;4978733;28;20057;-65
2022/01/02 06:47:41;;;;;;;10.35;4.00;;;9.10;99.90;;;;;;4972077;28;20030;-65
2022/01/02 06:50:07;;;;;;;11.20;3.90;;;10.10;99.90;;;;;;4978694;28;20034;-65
2022/01/02 06:52:32;;;;;;;9.13;3.60;;;9.00;99.90;;;;;;4977383;28;20667;-65
2022/01/02 06:54:58;;;;;;;9.88;3.90;;;9.80;99.90;;;;;;4976944;28;20077;-65
2022/01/02 06:57:23;;;;;;;8.07;3.83;;;9.00;99.90;;;;;;4978115;28;20062;-65
2022/01/02 06:59:49;;;;;;;8.45;3.95;;;9.10;99.90;;;;;;4974856;28;20046;-65
2022/01/02 07:02:15;;;;;;;8.38;3.70;;;9.40;99.90;;;;;;4972287;28;20042;-65
2022/01/02 07:04:40;;;;;;;7.50;3.58;;;9.20;99.90;;;;;;4978547;28;20038;-65
2022/01/02 07:07:06;;;;;;;9.68;3.20;;;9.20;99.90;;;;;;4974867;28;20538;-65
2022/01/02 07:09:32;;;;;;;6.05;3.30;;;9.40;99.90;;;;;;4977363;28;20023;-65
2022/01/02 07:11:57;;;;;;;10.48;4.72;;;9.50;99.90;;;;;;4976792;28;20080;-65
2022/01/02 07:14:26;;;;;;;17.70;7.60;;;9.90;99.90;;;;;;4979403;28;20034;-65
2022/01/02 07:16:52;;;;;;;12.20;4.70;;;9.60;99.90;;;;;;4974349;28;20405;-65
2022/01/02 07:19:17;;;;;;;17.33;8.57;;;9.50;99.90;;;;;;4978044;28;20030;-65
2022/01/02 07:21:42;;;;;;;15.13;6.10;;;9.50;99.90;;;;;;4973098;28;20041;-66
2022/01/02 07:24:08;;;;;;;14.13;5.07;;;9.60;99.90;;;;;;4975744;28;20046;-65
2022/01/02 07:26:33;;;;;;;8.77;3.85;;;9.60;99.90;;;;;;4977148;28;20040;-65
2022/01/02 07:28:59;;;;;;;27.23;10.50;;;9.70;99.90;;;;;;4977903;28;20491;-65
2022/01/02 07:31:24;;;;;;;16.45;7.90;;;10.00;99.90;;;;;;4975889;28;20049;-65
2022/01/02 07:33:50;;;;;;;15.88;7.93;;;9.70;99.90;;;;;;4980344;28;20118;-65
2022/01/02 07:36:15;;;;;;;11.07;3.70;;;9.70;99.90;;;;;;4979867;28;20033;-65
2022/01/02 07:38:41;;;;;;;9.65;4.32;;;9.60;99.90;;;;;;4977711;28;20034;-65
2022/01/02 07:41:06;;;;;;;7.68;3.42;;;9.60;99.90;;;;;;4976160;28;20089;-65
2022/01/02 07:43:32;;;;;;;6.60;3.08;;;9.60;99.90;;;;;;4975617;28;20451;-65
2022/01/02 07:45:58;;;;;;;7.90;2.90;;;;;;;;;;4975515;28;20120;-64
2022/01/02 07:48:24;;;;;;;7.03;2.90;;;;;;;;;;4976529;28;20027;-65
2022/01/02 07:50:49;;;;;;;8.75;3.47;;;9.70;99.90;;;;;;4974467;28;20040;-65
2022/01/02 07:53:15;;;;;;;8.20;3.40;;;9.80;99.90;;;;;;4975837;28;20506;-65
2022/01/02 07:55:40;;;;;;;5.28;2.90;;;9.70;99.90;;;;;;4977567;28;20133;-65
2022/01/02 07:58:06;;;;;;;8.90;3.08;;;9.80;99.90;;;;;;4973255;28;20031;-65
2022/01/02 08:00:31;;;;;;;10.95;4.88;;;9.80;99.90;;;;;;4976547;28;20461;-65
2022/01/02 08:02:57;;;;;;;9.43;3.80;;;9.80;99.90;;;;;;4977445;28;20101;-65
2022/01/02 08:05:22;;;;;;;5.70;2.50;;;9.80;99.90;;;;;;4976430;28;20034;-65
2022/01/02 08:07:48;;;;;;;6.03;3.05;;;9.80;99.90;;;;;;4972602;28;20039;-65
2022/01/02 08:10:13;;;;;;;8.02;2.85;;;9.90;99.90;;;;;;4974730;28;20034;-65
2022/01/02 08:12:39;;;;;;;8.23;2.88;;;9.90;99.90;;;;;;4968403;28;20562;-65
2022/01/02 08:15:05;;;;;;;7.22;3.10;;;9.90;99.90;;;;;;4972541;28;20038;-65
2022/01/02 08:17:31;;;;;;;7.35;2.95;;;10.10;99.90;;;;;;4977465;28;20030;-65
2022/01/02 08:19:57;;;;;;;7.78;2.47;;;;;;;;;;4976332;28;20553;-65
2022/01/02 08:22:23;;;;;;;10.88;3.25;;;;;;;;;;4973803;28;20034;-65
2022/01/02 08:24:49;;;;;;;7.10;2.80;;;;;;;;;;4972093;28;20033;-65
2022/01/02 08:27:14;;;;;;;10.32;2.95;;;;;;;;;;4971845;28;20026;-64
2022/01/02 08:29:40;;;;;;;8.40;2.88;;;;;;;;;;4977975;28;20034;-65
2022/01/02 08:32:06;;;;;;;8.98;3.55;;;;;;;;;;4974194;28;20478;-65
2022/01/02 08:34:32;;;;;;;7.60;2.35;;;;;;;;;;4970857;28;20054;-65
2022/01/02 08:36:58;;;;;;;3.78;2.40;;;;;;;;;;4989953;28;20430;-65
2022/01/02 08:39:24;;;;;;;6.10;2.47;;;;;;;;;;4985355;28;20114;-65
2022/01/02 08:41:50;;;;;;;9.75;3.20;;;;;;;;;;4974513;28;20037;-65
2022/01/02 08:44:16;;;;;;;11.90;2.92;;;;;;;;;;4976578;28;20034;-65
2022/01/02 08:46:42;;;;;;;15.25;6.20;;;;;;;;;;4972630;28;20038;-66
2022/01/02 08:49:08;;;;;;;13.20;8.45;;;;;;;;;;4972497;28;20073;-66
2022/01/02 08:51:34;;;;;;;7.20;3.40;;;;;;;;;;4975528;28;20727;-65
2022/01/02 08:54:01;;;;;;;6.55;2.85;;;;;;;;;;4969392;28;20034;-65
2022/01/02 08:56:27;;;;;;;5.43;2.85;;;;;;;;;;4973900;28;20737;-65
2022/01/02 08:58:53;;;;;;;21.38;8.43;;;;;;;;;;4977009;28;20034;-65
2022/01/02 09:01:19;;;;;;;7.45;3.97;;;;;;;;;;4982215;28;20105;-65
2022/01/02 09:03:46;;;;;;;11.90;5.43;;;10.40;99.90;;;;;;4996799;28;20508;-65
2022/01/02 09:06:11;;;;;;;13.18;6.35;;;10.20;99.90;;;;;;4976419;28;20078;-65
2022/01/02 09:08:36;;;;;;;13.07;4.07;;;10.50;99.90;;;;;;4980285;28;20030;-65
2022/01/02 09:11:02;;;;;;;35.83;17.08;;;10.50;99.90;;;;;;4979924;28;20502;-65
2022/01/02 09:13:27;;;;;;;27.55;12.35;;;10.50;99.90;;;;;;4981005;28;20042;-65
2022/01/02 09:15:53;;;;;;;12.95;4.40;;;10.50;99.90;;;;;;4977892;28;20407;-65
2022/01/02 09:18:19;;;;;;;11.32;3.20;;;10.20;99.90;;;;;;4980414;28;20882;-66
2022/01/02 09:20:44;;;;;;;11.25;5.38;;;10.40;99.90;;;;;;4981624;28;20038;-65
2022/01/02 09:23:10;;;;;;;10.50;3.40;;;10.40;99.90;;;;;;4972624;28;20050;-66
2022/01/02 09:25:35;;;;;;;7.97;2.90;;;10.40;99.90;;;;;;4981258;28;20030;-66
2022/01/02 09:28:01;;;;;;;7.90;3.00;;;10.40;99.90;;;;;;4982412;28;20112;-66
2022/01/02 09:30:26;;;;;;;5.90;2.70;;;10.40;99.90;;;;;;4979317;28;20038;-66
2022/01/02 09:32:53;;;;;;;8.13;3.72;;;10.30;99.90;;;;;;4980561;28;20072;-64
2022/01/02 09:35:18;;;;;;;8.40;2.80;;;10.60;99.90;;;;;;4975190;28;20035;-65
2022/01/02 09:37:44;;;;;;;9.85;2.50;;;10.40;99.90;;;;;;4978931;28;20030;-65
2022/01/02 09:40:09;;;;;;;8.38;3.78;;;10.50;99.90;;;;;;4975622;28;20505;-66
2022/01/02 09:42:35;;;;;;;9.10;3.03;;;10.60;99.90;;;;;;4978833;28;20058;-65
2022/01/02 09:45:01;;;;;;;5.47;2.10;;;;;;;;;;4996089;28;20835;-65
2022/01/02 09:47:27;;;;;;;8.25;2.85;;;;;;;;;;4977662;28;20044;-65
2022/01/02 09:49:52;;;;;;;5.15;2.20;;;10.70;99.90;;;;;;4975907;28;20701;-65
2022/01/02 09:52:18;;;;;;;10.65;2.85;;;10.80;99.90;;;;;;4978487;28;20057;-64
2022/01/02 09:54:43;;;;;;;6.03;2.50;;;10.80;99.90;;;;;;4974226;28;20755;-64
2022/01/02 09:57:09;;;;;;;6.30;2.42;;;10.70;99.90;;;;;;4994359;28;20031;-66
2022/01/02 09:59:34;;;;;;;6.85;2.75;;;10.80;99.90;;;;;;4993078;28;20906;-65
2022/01/02 10:02:01;;;;;;;7.97;3.10;;;10.80;99.90;;;;;;4976250;28;20034;-65
2022/01/02 10:04:27;;;;;;;8.90;2.50;;;10.70;99.90;;;;;;4990950;28;20119;-66
2022/01/02 10:06:53;;;;;;;7.10;2.40;;;10.70;99.90;;;;;;4979148;28;20130;-65
2022/01/02 10:09:19;;;;;;;6.90;2.75;;;10.70;99.90;;;;;;4994853;28;20057;-65
2022/01/02 10:11:44;;;;;;;8.98;3.38;;;10.70;99.90;;;;;;4977395;28;20590;-65
2022/01/02 10:14:10;;;;;;;7.70;2.75;;;10.80;99.90;;;;;;4977957;28;20069;-65
2022/01/02 10:16:36;;;;;;;6.85;2.38;;;10.80;99.90;;;;;;4979475;28;20481;-65
2022/01/02 10:19:01;;;;;;;5.60;2.95;;;10.80;99.90;;;;;;4980207;28;20108;-65
2022/01/02 10:21:27;;;;;;;5.70;2.85;;;10.80;99.90;;;;;;4977194;28;20046;-64
2022/01/02 10:23:52;;;;;;;7.32;2.47;;;10.40;99.90;;;;;;4973108;28;20122;-66
2022/01/02 10:26:18;;;;;;;6.55;2.80;;;10.80;99.90;;;;;;4979126;28;20764;-65
2022/01/02 10:28:43;;;;;;;10.00;2.97;;;10.80;99.90;;;;;;4974499;28;20156;-65
2022/01/02 10:31:09;;;;;;;11.98;3.10;;;10.80;99.90;;;;;;4984974;28;20042;-66
2022/01/02 10:33:34;;;;;;;6.07;2.90;;;10.80;99.90;;;;;;4974252;28;20034;-65
2022/01/02 10:36:00;;;;;;;6.93;3.20;;;10.90;99.90;;;;;;4977859;28;20042;-65
2022/01/02 10:38:25;;;;;;;8.57;2.80;;;11.10;99.90;;;;;;4979651;28;20105;-66
2022/01/02 10:40:51;;;;;;;8.23;2.72;;;10.80;99.90;;;;;;4973763;28;20054;-65
2022/01/02 10:43:16;;;;;;;7.88;2.88;;;10.90;99.90;;;;;;4973626;28;20065;-65
2022/01/02 10:45:43;;;;;;;6.57;3.03;;;10.90;99.90;;;;;;4976921;28;20485;-64
2022/01/02 10:48:08;;;;;;;4.47;2.67;;;10.90;99.90;;;;;;4979522;28;20045;-64
2022/01/02 10:50:34;;;;;;;10.63;3.05;;;10.80;99.90;;;;;;4993146;28;20030;-67
2022/01/02 10:53:00;;;;;;;6.70;2.75;;;10.70;99.90;;;;;;4974419;28;20030;-65
2022/01/02 10:55:25;;;;;;;7.65;2.70;;;11.80;99.90;;;;;;4974821;28;20505;-65
2022/01/02 10:57:51;;;;;;;7.22;2.72;;;10.70;99.90;;;;;;4990471;28;20066;-65
2022/01/02 11:00:16;;;;;;;6.75;2.85;;;10.90;99.90;;;;;;4976535;28;20093;-64
2022/01/02 11:02:42;;;;;;;8.80;2.58;;;10.70;99.90;;;;;;4978655;28;20129;-64
2022/01/02 11:05:07;;;;;;;9.98;2.85;;;10.70;99.90;;;;;;4975672;28;20022;-64
2022/01/02 11:07:33;;;;;;;5.40;2.47;;;10.80;99.90;;;;;;4977456;28;20732;-65
2022/01/02 11:09:59;;;;;;;8.52;2.88;;;;;;;;;;4974409;28;20034;-65
2022/01/02 11:12:25;;;;;;;8.23;2.70;;;10.90;99.90;;;;;;4974055;28;20060;-65
2022/01/02 11:14:50;;;;;;;6.10;2.33;;;10.90;99.90;;;;;;4976229;28;20605;-65
2022/01/02 11:17:16;;;;;;;7.90;2.78;;;10.80;99.90;;;;;;4977117;28;20038;-67
2022/01/02 11:19:41;;;;;;;6.28;2.83;;;10.70;99.90;;;;;;4977622;28;20041;-68
2022/01/02 11:22:07;;;;;;;10.52;3.15;;;10.70;99.90;;;;;;4973901;28;20030;-68
2022/01/02 11:24:32;;;;;;;8.60;2.90;;;10.70;99.90;;;;;;4975148;28;20117;-68
2022/01/02 11:26:58;;;;;;;7.10;2.60;;;10.80;99.90;;;;;;4974601;28;20041;-68
2022/01/02 11:29:23;;;;;;;9.05;3.15;;;10.90;99.90;;;;;;4970532;28;20041;-69
2022/01/02 11:31:50;;;;;;;6.78;2.90;;;10.80;99.90;;;;;;4976015;28;20042;-68
2022/01/02 11:34:16;;;;;;;9.07;2.80;;;11.50;99.90;;;;;;4992555;28;20113;-68
2022/01/02 11:36:41;;;;;;;10.10;3.10;;;10.70;99.90;;;;;;4975833;28;20038;-65
2022/01/02 11:39:07;;;;;;;9.63;2.60;;;10.70;99.90;;;;;;4987766;28;20102;-65
2022/01/02 11:41:32;;;;;;;9.07;3.28;;;10.70;99.90;;;;;;4988393;28;20022;-65
2022/01/02 11:44:00;;;;;;;11.25;3.08;;;10.70;99.90;;;;;;4974504;28;20038;-65
2022/01/02 11:46:25;;;;;;;10.00;3.75;;;10.80;99.90;;;;;;4975280;28;20773;-65
2022/01/02 11:48:51;;;;;;;8.10;3.30;;;10.70;99.90;;;;;;4976075;28;20030;-65
2022/01/02 11:51:16;;;;;;;8.55;3.70;;;10.70;99.90;;;;;;4986917;28;20371;-64
2022/01/02 11:53:42;;;;;;;11.13;3.08;;;10.60;99.90;;;;;;4972415;28;20744;-63
2022/01/02 11:56:07;;;;;;;12.90;3.80;;;11.60;99.90;;;;;;4975540;28;20503;-64
2022/01/02 11:58:33;;;;;;;12.13;3.95;;;10.10;99.90;;;;;;4974538;28;20030;-65
2022/01/02 12:00:58;;;;;;;6.85;3.45;;;10.50;99.90;;;;;;4970945;28;20042;-65
2022/01/02 12:03:24;;;;;;;9.18;4.00;;;10.50;99.90;;;;;;4971651;28;20037;-67
2022/01/02 12:05:49;;;;;;;11.85;4.80;;;10.80;99.90;;;;;;4974256;28;20573;-66
2022/01/02 12:08:15;;;;;;;11.20;4.32;;;10.60;99.90;;;;;;4973177;28;20494;-66
2022/01/02 12:10:44;;;;;;;12.25;4.68;;;10.50;99.90;;;;;;4975864;28;20034;-65
2022/01/02 12:13:10;;;;;;;13.50;4.13;;;10.70;99.90;;;;;;4973003;28;20037;-65
2022/01/02 12:15:35;;;;;;;9.43;4.57;;;10.50;99.90;;;;;;4975890;28;20038;-65
2022/01/02 12:18:01;;;;;;;13.88;4.90;;;10.50;99.90;;;;;;4975236;28;20034;-65
2022/01/02 12:20:26;;;;;;;16.27;6.40;;;10.40;99.90;;;;;;4974129;28;20677;-66
2022/01/02 12:22:53;;;;;;;12.90;5.43;;;;;;;;;;4977621;28;20027;-67
2022/01/02 12:25:19;;;;;;;11.30;5.38;;;;;;;;;;4977367;28;20034;-66
2022/01/02 12:27:45;;;;;;;13.90;5.40;;;;;;;;;;4975841;28;20037;-65
2022/01/02 12:30:11;;;;;;;10.95;4.57;;;;;;;;;;4989853;28;20042;-66
2022/01/02 12:32:37;;;;;;;15.05;5.30;;;;;;;;;;4989492;28;20065;-65
2022/01/02 12:35:03;;;;;;;12.93;5.40;;;;;;;;;;4974562;28;20129;-65
2022/01/02 12:37:29;;;;;;;12.60;5.10;;;;;;;;;;4967257;28;20030;-65
2022/01/02 12:39:54;;;;;;;14.60;4.88;;;;;;;;;;4972248;28;20034;-66
2022/01/02 12:42:20;;;;;;;15.23;5.70;;;;;;;;;;4970700;28;20039;-66
2022/01/02 12:44:46;;;;;;;17.25;5.45;;;;;;;;;;4970295;28;20496;-65
2022/01/02 12:47:13;;;;;;;16.55;5.40;;;;;;;;;;4969830;28;20037;-65
2022/01/02 12:49:38;;;;;;;21.48;6.55;;;;;;;;;;4976169;28;20376;-65
2022/01/02 12:52:05;;;;;;;21.23;6.05;;;;;;;;;;4972837;28;20054;-66
2022/01/02 12:54:30;;;;;;;18.42;6.13;;;10.40;99.90;;;;;;4993625;28;20459;-65
2022/01/02 12:56:56;;;;;;;12.60;5.45;;;10.20;99.90;;;;;;4978451;28;20038;-65
2022/01/02 12:59:22;;;;;;;17.20;6.28;;;;;;;;;;4973288;28;20037;-65
2022/01/02 13:01:47;;;;;;;29.10;11.57;;;10.50;99.90;;;;;;4976750;28;20145;-66